Time;durP1;ratioP1;P1;durP2;ratioP2;P2;SDS_P1;SDS_P2;PMS_P1;PMS_P2;Temp;Humidity;BMP_temperature;BMP_pressure;BME280_temperature;BME280_humidity;BME280_pressure;Samples;Min_cycle;Max_cycle;Signal;HPM_P1;HPM_P2
2021/03/09 00:01:26;;;;;;;;;;;5.60;82.40;;;;;;6243003;23;19926;-85
2021/03/09 00:04:17;;;;;;;;;;;5.60;82.40;;;;;;6218818;23;20340;-85
2021/03/09 00:06:54;;;;;;;;;;;5.60;82.50;;;;;;6220407;23;19966;-85
2021/03/09 00:09:39;;;;;;;;;;;5.60;82.70;;;;;;6244953;23;20301;-87
2021/03/09 00:12:30;;;;;;;;;;;5.60;82.70;;;;;;6206529;23;20012;-85
2021/03/09 00:15:00;;;;;;;;;;;5.50;82.90;;;;;;6244825;23;19900;-85
2021/03/09 00:17:29;;;;;;;;;;;5.50;83.00;;;;;;6243719;23;19904;-85
2021/03/09 00:20:10;;;;;;;;;;;;;;;;;;;;;
2021/03/09 00:23:00;;;;;;;;;;;5.40;83.20;;;;;;6246046;23;20423;-86
2021/03/09 00:25:30;;;;;;;;;;;5.40;83.30;;;;;;6221427;23;19907;-85
2021/03/09 00:30:48;;;;;;;;;;;5.40;83.60;;;;;;6245752;23;19899;-85
2021/03/09 00:33:38;;;;;;;;;;;5.40;83.70;;;;;;6243892;23;20365;-85
2021/03/09 00:36:12;;;;;;;;;;;5.40;83.90;;;;;;6218685;23;19918;-86
2021/03/09 00:38:38;;;;;;;;;;;5.40;84.10;;;;;;6244231;23;19900;-85
2021/03/09 00:41:09;;;;;;;;;;;5.40;84.20;;;;;;6242351;23;19907;-85
2021/03/09 00:43:37;;;;;;;;;;;5.40;84.20;;;;;;6244649;23;20390;-86
2021/03/09 00:46:05;;;;;;;;;;;5.40;84.20;;;;;;6211988;23;19931;-86
2021/03/09 00:48:38;;;;;;;;;;;5.40;84.50;;;;;;6233564;23;19925;-88
2021/03/09 00:51:14;;;;;;;;;;;;;;;;;;;;;
2021/03/09 00:53:40;;;;;;;;;;;5.40;84.70;;;;;;6247143;23;19972;-86
2021/03/09 00:56:09;;;;;;;;;;;5.30;84.90;;;;;;6243138;23;20694;-86
2021/03/09 00:58:37;;;;;;;;;;;5.30;84.90;;;;;;6218615;23;19903;-85
2021/03/09 01:01:03;;;;;;;;;;;5.30;84.90;;;;;;6243702;23;19907;-84
2021/03/09 01:03:31;;;;;;;;;;;5.30;85.00;;;;;;6218147;23;19907;-85
2021/03/09 01:06:14;;;;;;;;;;;5.30;85.10;;;;;;6219476;23;19916;-85
2021/03/09 01:08:52;;;;;;;;;;;5.20;85.10;;;;;;6245631;23;19938;-85
2021/03/09 01:11:18;;;;;;;;;;;5.30;85.20;;;;;;6245026;23;19903;-86
2021/03/09 01:13:46;;;;;;;;;;;5.30;85.20;;;;;;6245648;23;19906;-85
2021/03/09 01:16:17;;;;;;;;;;;5.30;85.40;;;;;;6244963;23;19907;-86
2021/03/09 01:18:45;;;;;;;;;;;5.30;85.50;;;;;;6242657;23;19900;-86
2021/03/09 01:21:15;;;;;;;;;;;5.30;85.70;;;;;;6240642;22;19915;-86
2021/03/09 01:23:43;;;;;;;;;;;5.30;85.70;;;;;;6220033;23;19934;-85
2021/03/09 01:26:11;;;;;;;;;;;5.30;85.80;;;;;;6219434;23;19957;-86
2021/03/09 01:28:39;;;;;;;;;;;5.30;85.80;;;;;;6243774;23;19907;-86
2021/03/09 01:31:05;;;;;;;;;;;5.30;85.90;;;;;;6217751;23;19908;-85
2021/03/09 01:33:30;;;;;;;;;;;5.30;86.00;;;;;;6244554;23;20013;-85
2021/03/09 01:35:59;;;;;;;;;;;5.30;86.20;;;;;;6245790;23;19903;-85
2021/03/09 01:38:43;;;;;;;;;;;5.20;86.20;;;;;;6245833;23;19931;-85
2021/03/09 01:41:08;;;;;;;;;;;5.20;86.30;;;;;;6244124;23;19965;-85
2021/03/09 01:43:34;;;;;;;;;;;5.20;86.30;;;;;;6218785;23;19900;-87
2021/03/09 01:46:00;;;;;;;;;;;5.20;86.50;;;;;;6244048;23;19903;-85
2021/03/09 01:48:31;;;;;;;;;;;5.10;86.70;;;;;;6241971;23;20447;-85
2021/03/09 01:51:02;;;;;;;;;;;5.10;86.70;;;;;;6241012;23;19910;-85
2021/03/09 01:53:30;;;;;;;;;;;5.10;86.90;;;;;;6246288;23;19974;-86
2021/03/09 01:55:56;;;;;;;;;;;5.10;87.10;;;;;;6220528;23;20368;-85
2021/03/09 01:58:24;;;;;;;;;;;5.10;87.20;;;;;;6220714;23;19922;-86
2021/03/09 02:00:57;;;;;;;;;;;5.10;87.20;;;;;;6219497;23;19907;-87
2021/03/09 02:03:28;;;;;;;;;;;5.10;87.30;;;;;;6244161;23;20360;-85
2021/03/09 02:05:54;;;;;;;;;;;5.10;87.40;;;;;;6245520;23;19910;-86
2021/03/09 02:08:23;;;;;;;;;;;5.10;87.50;;;;;;6246873;23;20238;-86
2021/03/09 02:10:59;;;;;;;;;;;5.10;87.50;;;;;;6218078;23;19907;-85
2021/03/09 02:13:39;;;;;;;;;;;5.10;87.70;;;;;;6219048;23;19900;-85
2021/03/09 02:16:24;;;;;;;;;;;5.10;87.60;;;;;;6244498;23;19984;-86
2021/03/09 02:19:08;;;;;;;;;;;5.10;87.50;;;;;;6212054;23;20233;-87
2021/03/09 02:21:49;;;;;;;;;;;5.10;87.50;;;;;;6240433;22;20233;-86
2021/03/09 02:24:45;;;;;;;;;;;5.00;87.50;;;;;;6218206;23;19900;-85
2021/03/09 02:27:29;;;;;;;;;;;5.10;87.60;;;;;;6212063;23;19904;-85
2021/03/09 02:30:17;;;;;;;;;;;;;;;;;;;;;
2021/03/09 02:32:56;;;;;;;;;;;5.10;87.70;;;;;;6244863;23;20377;-85
2021/03/09 02:35:25;;;;;;;;;;;5.10;87.70;;;;;;6245148;23;19949;-85
2021/03/09 02:37:55;;;;;;;;;;;5.00;87.70;;;;;;6240054;23;19899;-84
2021/03/09 02:40:23;;;;;;;;;;;5.00;87.80;;;;;;6239494;23;19899;-86
2021/03/09 02:42:51;;;;;;;;;;;5.00;87.90;;;;;;6240573;23;19934;-86
2021/03/09 02:45:19;;;;;;;;;;;5.00;88.10;;;;;;6241044;23;19907;-85
2021/03/09 02:47:47;;;;;;;;;;;5.00;88.20;;;;;;6246343;23;19904;-86
2021/03/09 02:50:16;;;;;;;;;;;5.00;88.40;;;;;;6242913;23;19908;-86
2021/03/09 02:52:56;;;;;;;;;;;5.00;88.40;;;;;;6244837;23;19965;-86
2021/03/09 02:55:22;;;;;;;;;;;5.00;88.30;;;;;;6246162;23;19982;-85
2021/03/09 02:57:51;;;;;;;;;;;5.00;88.40;;;;;;6246018;23;19900;-86
2021/03/09 03:00:17;;;;;;;;;;;5.00;88.40;;;;;;6243086;23;20309;-85
2021/03/09 03:02:46;;;;;;;;;;;5.00;88.40;;;;;;6244788;23;19907;-85
2021/03/09 03:05:18;;;;;;;;;;;5.00;88.40;;;;;;6244636;23;19994;-85
2021/03/09 03:07:46;;;;;;;;;;;5.10;88.60;;;;;;6244634;23;19937;-85
2021/03/09 03:10:15;;;;;;;;;;;5.00;88.70;;;;;;6245656;23;19906;-85
2021/03/09 03:12:48;;;;;;;;;;;5.00;88.80;;;;;;6244681;23;19969;-86
2021/03/09 03:15:17;;;;;;;;;;;5.00;88.80;;;;;;6243653;23;20323;-84
2021/03/09 03:17:44;;;;;;;;;;;5.00;88.90;;;;;;6242563;23;19986;-84
2021/03/09 03:20:15;;;;;;;;;;;5.00;89.00;;;;;;6245678;23;19900;-85
2021/03/09 03:22:43;;;;;;;;;;;5.00;89.00;;;;;;6242852;22;20202;-84
2021/03/09 03:25:12;;;;;;;;;;;5.00;89.10;;;;;;6243744;23;19908;-85
2021/03/09 03:27:43;;;;;;;;;;;5.00;89.40;;;;;;6242990;23;19923;-85
2021/03/09 03:30:13;;;;;;;;;;;5.00;89.40;;;;;;6241757;23;19918;-85
2021/03/09 03:32:42;;;;;;;;;;;5.00;89.30;;;;;;6243972;23;19982;-86
2021/03/09 03:35:33;;;;;;;;;;;5.00;89.20;;;;;;6218222;23;19942;-85
2021/03/09 03:38:01;;;;;;;;;;;5.10;89.30;;;;;;6242997;23;20328;-86
2021/03/09 03:40:34;;;;;;;;;;;5.00;89.30;;;;;;6244472;23;19953;-85
2021/03/09 03:43:08;;;;;;;;;;;5.00;89.40;;;;;;6242960;23;19923;-87
2021/03/09 03:45:35;;;;;;;;;;;5.00;89.50;;;;;;6241617;23;19986;-86
2021/03/09 03:48:04;;;;;;;;;;;5.00;89.60;;;;;;6213089;23;19910;-84
2021/03/09 03:50:35;;;;;;;;;;;5.00;89.80;;;;;;6241472;23;19934;-85
2021/03/09 03:53:17;;;;;;;;;;;5.00;89.90;;;;;;6243135;23;19903;-85
2021/03/09 03:55:54;;;;;;;;;;;5.00;90.00;;;;;;6244386;23;19900;-84
2021/03/09 03:58:41;;;;;;;;;;;5.00;90.00;;;;;;6217678;23;19906;-85
2021/03/09 04:01:09;;;;;;;;;;;5.10;90.10;;;;;;6242549;23;19939;-86
2021/03/09 04:03:38;;;;;;;;;;;5.10;90.10;;;;;;6245072;23;19942;-85
2021/03/09 04:06:14;;;;;;;;;;;;;;;;;;;;;
2021/03/09 04:08:59;;;;;;;;;;;5.10;90.10;;;;;;6245215;23;19988;-84
2021/03/09 04:11:25;;;;;;;;;;;5.00;90.10;;;;;;6243939;23;19905;-84
2021/03/09 04:13:54;;;;;;;;;;;5.10;90.10;;;;;;6243009;23;19982;-85
2021/03/09 04:16:37;;;;;;;;;;;5.10;90.20;;;;;;6239859;23;19900;-85
2021/03/09 04:19:07;;;;;;;;;;;5.00;90.10;;;;;;6239450;23;19899;-84
2021/03/09 04:21:44;;;;;;;;;;;5.10;90.20;;;;;;6242025;22;19911;-85
2021/03/09 04:24:11;;;;;;;;;;;5.10;90.20;;;;;;6243674;23;19900;-85
2021/03/09 04:26:40;;;;;;;;;;;5.10;90.20;;;;;;6242908;23;19904;-84
2021/03/09 04:29:14;;;;;;;;;;;5.10;90.20;;;;;;6240602;23;20329;-85
2021/03/09 04:31:43;;;;;;;;;;;5.10;90.20;;;;;;6242331;23;20321;-86
2021/03/09 04:34:12;;;;;;;;;;;5.10;90.20;;;;;;6238037;23;20283;-85
2021/03/09 04:36:41;;;;;;;;;;;5.10;90.20;;;;;;6215987;23;20298;-86
2021/03/09 04:39:07;;;;;;;;;;;5.10;90.20;;;;;;6216346;23;19903;-86
2021/03/09 04:41:35;;;;;;;;;;;5.10;90.20;;;;;;6243024;23;19974;-86
2021/03/09 04:44:09;;;;;;;;;;;5.10;90.20;;;;;;6243559;23;19949;-86
2021/03/09 04:46:35;;;;;;;;;;;5.10;90.30;;;;;;6238829;23;19989;-85
2021/03/09 04:49:10;;;;;;;;;;;5.10;90.30;;;;;;6237446;23;19903;-86
2021/03/09 04:51:46;;;;;;;;;;;;;;;;;;;;;
2021/03/09 04:54:15;;;;;;;;;;;5.10;90.40;;;;;;6246484;23;19982;-85
2021/03/09 04:56:43;;;;;;;;;;;5.10;90.40;;;;;;6244961;23;19953;-85
2021/03/09 04:59:08;;;;;;;;;;;5.10;90.40;;;;;;6244470;23;19907;-86
2021/03/09 05:01:36;;;;;;;;;;;5.10;90.40;;;;;;6244108;23;19900;-85
2021/03/09 05:04:04;;;;;;;;;;;5.10;90.50;;;;;;6245866;23;19900;-85
2021/03/09 05:07:03;;;;;;;;;;;;;;;;;;;;;
2021/03/09 05:18:58;;;;;;;;;;;5.10;90.50;;;;;;6158306;23;20562;-93
2021/03/09 06:33:36;;;;;;;;;;;;;;;;;;;;;
2021/03/09 08:36:10;;;;;;;;;;;;;;;;;;;;;
2021/03/09 08:42:43;;;;;;;;;;;;;;;;;;;;;
2021/03/09 08:57:46;;;;;;;;;;;6.30;92.20;;;;;;5851896;24;19923;-92
2021/03/09 11:58:47;;;;;;;;;;;7.50;89.60;;;;;;5740712;25;19932;-88
2021/03/09 12:04:42;;;;;;;;;;;7.30;89.30;;;;;;5727483;24;19914;-92
2021/03/09 12:07:47;;;;;;;;;;;;;;;;;;;;;
2021/03/09 12:23:34;;;;;;;;;;;;;;;;;;;;;
2021/03/09 12:26:36;;;;;;;;;;;;;;;;;;;;;
2021/03/09 12:52:05;;;;;;;;;;;7.50;89.80;;;;;;5998516;23;19917;-88
2021/03/09 13:14:07;;;;;;;;;;;;;;;;;;;;;
2021/03/09 13:16:28;;;;;;;;;;;;;;;;;;;;;
2021/03/09 13:19:31;;;;;;;;;;;;;;;;;;;;;
2021/03/09 13:25:27;;;;;;;;;;;;;;;;;;;;;
2021/03/09 13:28:18;;;;;;;;;;;;;;;;;;;;;
2021/03/09 13:31:01;;;;;;;;;;;7.50;88.80;;;;;;6198996;23;19923;-87
2021/03/09 13:49:35;;;;;;;;;;;7.60;88.20;;;;;;6178519;22;20318;-90
2021/03/09 13:52:36;;;;;;;;;;;;;;;;;;;;;
2021/03/09 13:55:38;;;;;;;;;;;;;;;;;;;;;
2021/03/09 13:58:40;;;;;;;;;;;;;;;;;;;;;
2021/03/09 14:04:35;;;;;;;;;;;7.70;87.10;;;;;;6227290;22;19909;-88
2021/03/09 14:07:10;;;;;;;;;;;7.60;86.60;;;;;;6220974;23;19977;-88
2021/03/09 14:12:58;;;;;;;;;;;7.70;86.40;;;;;;6217136;23;20306;-89
2021/03/09 14:19:06;;;;;;;;;;;;;;;;;;;;;
2021/03/09 14:25:12;;;;;;;;;;;;;;;;;;;;;
2021/03/09 14:33:53;;;;;;;;;;;7.60;85.70;;;;;;6214622;23;19999;-89
2021/03/09 14:36:51;;;;;;;;;;;;;;;;;;;;;
2021/03/09 14:39:58;;;;;;;;;;;7.60;85.50;;;;;;6240826;23;20004;-90
2021/03/09 14:45:55;;;;;;;;;;;7.60;85.70;;;;;;6141366;23;19912;-90
2021/03/09 14:51:46;;;;;;;;;;;;;;;;;;;;;
2021/03/09 14:54:41;;;;;;;;;;;;;;;;;;;;;
2021/03/09 15:01:00;;;;;;;;;;;;;;;;;;;;;
2021/03/09 15:07:05;;;;;;;;;;;;;;;;;;;;;
2021/03/09 15:13:31;;;;;;;;;;;;;;;;;;;;;
2021/03/09 15:34:45;;;;;;;;;;;7.40;85.10;;;;;;5953408;24;19899;-90
2021/03/09 15:43:18;;;;;;;;;;;7.30;85.70;;;;;;6037123;23;19905;-89
2021/03/09 15:52:37;;;;;;;;;;;;;;;;;;;;;
2021/03/09 15:55:40;;;;;;;;;;;;;;;;;;;;;
2021/03/09 15:58:33;;;;;;;;;;;;;;;;;;;;;
2021/03/09 16:23:12;;;;;;;;;;;;;;;;;;;;;
2021/03/09 16:25:54;;;;;;;;;;;;;;;;;;;;;
2021/03/09 16:31:47;;;;;;;;;;;;;;;;;;;;;
2021/03/09 16:38:17;;;;;;;;;;;;;;;;;;;;;
2021/03/09 16:40:23;;;;;;;;;;;7.30;87.50;;;;;;6050123;23;19949;-87
2021/03/09 16:46:27;;;;;;;;;;;;;;;;;;;;;
2021/03/09 16:55:47;;;;;;;;;;;;;;;;;;;;;
2021/03/09 16:58:44;;;;;;;;;;;;;;;;;;;;;
2021/03/09 17:01:47;;;;;;;;;;;;;;;;;;;;;
2021/03/09 17:04:46;;;;;;;;;;;;;;;;;;;;;
2021/03/09 17:07:35;;;;;;;;;;;;;;;;;;;;;
2021/03/09 17:10:34;;;;;;;;;;;;;;;;;;;;;
2021/03/09 17:16:37;;;;;;;;;;;7.20;88.10;;;;;;6187744;23;19904;-90
2021/03/09 17:22:24;;;;;;;;;;;;;;;;;;;;;
2021/03/09 17:28:30;;;;;;;;;;;7.20;88.40;;;;;;6044093;23;19920;-90
2021/03/09 17:38:15;;;;;;;;;;;;;;;;;;;;;
2021/03/09 17:56:25;;;;;;;;;;;;;;;;;;;;;
2021/03/09 17:59:11;;;;;;;;;;;;;;;;;;;;;
2021/03/09 18:02:07;;;;;;;;;;;7.10;88.90;;;;;;6216057;23;20094;-89
2021/03/09 18:05:04;;;;;;;;;;;;;;;;;;;;;
2021/03/09 18:16:55;;;;;;;;;;;;;;;;;;;;;
2021/03/09 18:19:59;;;;;;;;;;;;;;;;;;;;;
2021/03/09 18:26:04;;;;;;;;;;;;;;;;;;;;;
2021/03/09 18:29:21;;;;;;;;;;;;;;;;;;;;;
2021/03/09 18:32:16;;;;;;;;;;;;;;;;;;;;;
2021/03/09 18:38:05;;;;;;;;;;;6.90;89.20;;;;;;6153496;23;19975;-87
2021/03/09 18:44:39;;;;;;;;;;;;;;;;;;;;;
2021/03/09 18:47:18;;;;;;;;;;;;;;;;;;;;;
2021/03/09 18:53:22;;;;;;;;;;;;;;;;;;;;;
2021/03/09 19:11:46;;;;;;;;;;;;;;;;;;;;;
2021/03/09 19:21:30;;;;;;;;;;;6.80;90.10;;;;;;6206282;23;19934;-89
2021/03/09 19:24:39;;;;;;;;;;;;;;;;;;;;;
2021/03/09 19:30:23;;;;;;;;;;;6.80;89.80;;;;;;5960456;24;19906;-90
2021/03/09 19:33:08;;;;;;;;;;;6.80;89.90;;;;;;6065331;23;19905;-90
2021/03/09 19:35:47;;;;;;;;;;;;;;;;;;;;;
2021/03/09 19:41:30;;;;;;;;;;;6.70;90.00;;;;;;5981246;23;19902;-86
2021/03/09 19:43:59;;;;;;;;;;;6.70;90.00;;;;;;6055279;23;19987;-85
2021/03/09 19:46:31;;;;;;;;;;;6.70;90.00;;;;;;6150217;23;19909;-85
2021/03/09 19:49:01;;;;;;;;;;;6.70;90.00;;;;;;6125034;23;19908;-84
2021/03/09 19:51:32;;;;;;;;;;;6.60;90.00;;;;;;6125776;23;20259;-85
2021/03/09 19:54:02;;;;;;;;;;;6.60;90.00;;;;;;6213615;23;20313;-84
2021/03/09 19:56:30;;;;;;;;;;;6.60;90.00;;;;;;6242561;23;19904;-84
2021/03/09 19:59:05;;;;;;;;;;;6.60;90.00;;;;;;6216297;23;19915;-85
2021/03/09 20:01:31;;;;;;;;;;;6.60;89.90;;;;;;6241320;23;19982;-84
2021/03/09 20:03:56;;;;;;;;;;;6.60;89.80;;;;;;6241342;23;19931;-83
2021/03/09 20:06:22;;;;;;;;;;;6.60;89.70;;;;;;6215888;23;20339;-87
2021/03/09 20:11:43;;;;;;;;;;;6.50;89.60;;;;;;6230773;23;20275;-83
2021/03/09 20:14:16;;;;;;;;;;;6.50;89.60;;;;;;6219287;23;19904;-84
2021/03/09 20:16:51;;;;;;;;;;;;;;;;;;;;;
2021/03/09 20:19:22;;;;;;;;;;;6.50;89.60;;;;;;6243302;23;19999;-84
2021/03/09 20:21:51;;;;;;;;;;;6.40;89.40;;;;;;6218982;23;19911;-85
2021/03/09 20:24:20;;;;;;;;;;;6.40;89.40;;;;;;6245004;23;19903;-84
2021/03/09 20:26:46;;;;;;;;;;;6.40;89.40;;;;;;6244620;23;19907;-83
2021/03/09 20:29:21;;;;;;;;;;;6.40;89.40;;;;;;6219873;23;20335;-83
2021/03/09 20:31:47;;;;;;;;;;;6.40;89.40;;;;;;6246859;23;19906;-83
2021/03/09 20:34:13;;;;;;;;;;;6.40;89.40;;;;;;6248830;23;19979;-84
2021/03/09 20:36:39;;;;;;;;;;;6.40;89.30;;;;;;6249369;23;19906;-84
2021/03/09 20:39:12;;;;;;;;;;;6.40;89.40;;;;;;6247345;23;19900;-84
2021/03/09 20:41:40;;;;;;;;;;;6.30;89.30;;;;;;6249204;23;19904;-85
2021/03/09 20:44:26;;;;;;;;;;;6.40;89.40;;;;;;6253757;23;19974;-85
2021/03/09 20:46:54;;;;;;;;;;;6.30;89.40;;;;;;6255651;23;19908;-84
2021/03/09 20:49:29;;;;;;;;;;;6.30;89.40;;;;;;6258332;23;19900;-83
2021/03/09 20:51:55;;;;;;;;;;;6.30;89.40;;;;;;6256592;23;19903;-86
2021/03/09 20:54:27;;;;;;;;;;;6.30;89.40;;;;;;6251970;23;19903;-84
2021/03/09 20:57:03;;;;;;;;;;;6.30;89.40;;;;;;6225005;23;20388;-84
2021/03/09 20:59:44;;;;;;;;;;;;;;;;;;;;;
2021/03/09 21:02:10;;;;;;;;;;;6.30;89.30;;;;;;6247106;23;20364;-85
2021/03/09 21:04:35;;;;;;;;;;;6.30;89.30;;;;;;6243721;23;19938;-85
2021/03/09 21:07:13;;;;;;;;;;;6.20;89.10;;;;;;6219868;23;20276;-85
2021/03/09 21:09:41;;;;;;;;;;;6.20;89.20;;;;;;6243947;23;19903;-85
2021/03/09 21:12:30;;;;;;;;;;;6.20;89.10;;;;;;6207665;23;19989;-86
2021/03/09 21:15:00;;;;;;;;;;;6.20;89.10;;;;;;6189134;23;19922;-85
2021/03/09 21:17:47;;;;;;;;;;;6.20;89.10;;;;;;6214504;23;19950;-84
2021/03/09 21:20:23;;;;;;;;;;;6.20;89.00;;;;;;6214097;23;19982;-85
2021/03/09 21:22:56;;;;;;;;;;;6.10;88.80;;;;;;6213786;23;19900;-85
2021/03/09 21:25:31;;;;;;;;;;;6.10;88.70;;;;;;6213006;23;19947;-84
2021/03/09 21:28:02;;;;;;;;;;;6.10;88.60;;;;;;6213461;23;20208;-83
2021/03/09 21:30:34;;;;;;;;;;;6.10;88.50;;;;;;6214402;23;19911;-86
2021/03/09 21:33:05;;;;;;;;;;;6.00;88.50;;;;;;6209513;23;19911;-84
2021/03/09 21:35:40;;;;;;;;;;;6.10;88.50;;;;;;6211985;23;19923;-84
2021/03/09 21:38:20;;;;;;;;;;;6.00;88.30;;;;;;6209446;23;20362;-84
2021/03/09 21:40:48;;;;;;;;;;;6.00;88.20;;;;;;6187250;23;19908;-85
2021/03/09 21:43:28;;;;;;;;;;;6.00;88.10;;;;;;6212495;23;20322;-86
2021/03/09 21:46:03;;;;;;;;;;;;;;;;;;;;;
2021/03/09 21:48:55;;;;;;;;;;;6.00;88.00;;;;;;6215492;23;19987;-84
2021/03/09 21:51:35;;;;;;;;;;;6.00;88.00;;;;;;6187013;23;19968;-85
2021/03/09 21:54:21;;;;;;;;;;;5.90;87.90;;;;;;6211146;23;19904;-84
2021/03/09 21:59:52;;;;;;;;;;;6.00;88.00;;;;;;6193251;23;19954;-83
2021/03/09 22:05:07;;;;;;;;;;;6.00;88.10;;;;;;6171338;23;20333;-84
2021/03/09 22:07:44;;;;;;;;;;;6.00;88.30;;;;;;6212184;23;19903;-85
2021/03/09 22:10:12;;;;;;;;;;;6.00;88.40;;;;;;6211843;23;19970;-83
2021/03/09 22:12:38;;;;;;;;;;;6.00;88.60;;;;;;6207231;23;19916;-83
2021/03/09 22:15:04;;;;;;;;;;;6.00;88.60;;;;;;6212760;23;19911;-84
2021/03/09 22:17:50;;;;;;;;;;;5.90;88.60;;;;;;6213372;23;20234;-85
2021/03/09 22:20:23;;;;;;;;;;;6.00;88.80;;;;;;6187653;23;19926;-83
2021/03/09 22:22:57;;;;;;;;;;;5.90;88.90;;;;;;6211999;23;19938;-83
2021/03/09 22:25:34;;;;;;;;;;;5.90;88.90;;;;;;6191804;23;19916;-85
2021/03/09 22:28:02;;;;;;;;;;;5.90;89.00;;;;;;6190525;23;20207;-83
2021/03/09 22:30:35;;;;;;;;;;;5.90;89.00;;;;;;6212948;23;20303;-84
2021/03/09 22:33:03;;;;;;;;;;;5.90;89.10;;;;;;6211055;23;20199;-84
2021/03/09 22:36:14;;;;;;;;;;;5.90;89.10;;;;;;6188084;23;19926;-84
2021/03/09 22:41:09;;;;;;;;;;;5.80;89.10;;;;;;6213779;23;19983;-84
2021/03/09 22:43:34;;;;;;;;;;;5.80;89.10;;;;;;6214242;23;19927;-83
2021/03/09 22:46:05;;;;;;;;;;;5.80;89.10;;;;;;6216524;23;19907;-83
2021/03/09 22:48:36;;;;;;;;;;;5.70;89.10;;;;;;6188604;23;19935;-83
2021/03/09 22:54:02;;;;;;;;;;;5.70;89.30;;;;;;6194943;23;19927;-83
2021/03/09 22:56:33;;;;;;;;;;;5.70;89.30;;;;;;6191029;23;19907;-83
2021/03/09 22:59:09;;;;;;;;;;;;;;;;;;;;;
2021/03/09 23:01:35;;;;;;;;;;;5.60;89.30;;;;;;6215694;23;19979;-84
2021/03/09 23:04:03;;;;;;;;;;;5.60;89.30;;;;;;6215619;23;19900;-83
2021/03/09 23:06:39;;;;;;;;;;;;;;;;;;;;;
2021/03/09 23:09:15;;;;;;;;;;;5.50;89.20;;;;;;6213755;23;19978;-83
2021/03/09 23:12:02;;;;;;;;;;;5.40;89.10;;;;;;6217755;23;19950;-84
2021/03/09 23:14:27;;;;;;;;;;;5.40;89.00;;;;;;6242262;23;19906;-84
2021/03/09 23:16:52;;;;;;;;;;;5.30;89.00;;;;;;6218941;23;19899;-84
2021/03/09 23:19:30;;;;;;;;;;;;;;;;;;;;;
2021/03/09 23:22:02;;;;;;;;;;;5.20;89.00;;;;;;6242999;23;19986;-83
2021/03/09 23:24:27;;;;;;;;;;;5.10;89.00;;;;;;6218973;23;19906;-83
2021/03/09 23:26:58;;;;;;;;;;;5.10;89.00;;;;;;6217294;23;20325;-83
2021/03/09 23:29:27;;;;;;;;;;;5.00;89.00;;;;;;6216735;23;19946;-83
2021/03/09 23:31:52;;;;;;;;;;;5.00;89.10;;;;;;6216305;23;20344;-84
2021/03/09 23:34:21;;;;;;;;;;;4.90;89.00;;;;;;6243750;23;19903;-84
2021/03/09 23:36:49;;;;;;;;;;;4.90;89.00;;;;;;6217761;23;19905;-83
2021/03/09 23:39:15;;;;;;;;;;;4.80;89.00;;;;;;6242655;23;19899;-84
2021/03/09 23:41:48;;;;;;;;;;;4.80;89.00;;;;;;6241290;23;20002;-84
2021/03/09 23:44:26;;;;;;;;;;;4.70;89.00;;;;;;6216433;23;19900;-83
2021/03/09 23:46:56;;;;;;;;;;;4.70;89.00;;;;;;6240757;23;19961;-84
2021/03/09 23:49:29;;;;;;;;;;;4.60;88.90;;;;;;6215057;23;19911;-83
2021/03/09 23:51:55;;;;;;;;;;;4.60;88.90;;;;;;6211887;23;19903;-83
2021/03/09 23:54:30;;;;;;;;;;;4.50;88.90;;;;;;6216640;23;19981;-83
2021/03/09 23:56:56;;;;;;;;;;;4.50;89.00;;;;;;6216714;23;19900;-84
2021/03/09 23:59:21;;;;;;;;;;;4.40;88.90;;;;;;6218570;23;20199;-83
